Terminal Aerodrome Forecast
Issued by NWS

Home | Current Version | Previous Version | Text Only | Print | Product List | Glossary On
Versions: 1 2 3 4 5 6 7 8 9 10 11 12 13 14 15 16 17 18 19 20 21 22 23 24 25 26 27 28
000
FTUS41 KOKX 091732
TAFTEB
TAF
KTEB 091732Z 0918/1018 05005KT P6SM OVC015
     FM092100 VRB04KT P6SM OVC012
     FM100200 VRB04KT 1SM -SN BR BKN007 OVC010
      TEMPO 1007/1011 1/2SM SN OVC006
     FM101300 29007KT P6SM SCT015 BKN030
     FM101700 27012G20KT P6SM BKN040=

USA.gov is the U.S. government's official web portal to all federal, state and local government web resources and services.